Time;durP1;ratioP1;P1;durP2;ratioP2;P2;SDS_P1;SDS_P2;PMS_P1;PMS_P2;Temp;Humidity;BMP_temperature;BMP_pressure;BME280_temperature;BME280_humidity;BME280_pressure;Samples;Min_cycle;Max_cycle;Signal;HPM_P1;HPM_P2
2022/01/23 00:02:17;;;;;;;17.13;7.73;;;2.30;53.30;;;;;;5078350;28;20642;-76
2022/01/23 00:04:46;;;;;;;13.37;7.03;;;2.40;53.40;;;;;;5078390;28;20228;-75
2022/01/23 00:07:15;;;;;;;18.63;8.83;;;2.30;53.50;;;;;;5077996;28;20647;-75
2022/01/23 00:09:44;;;;;;;18.00;8.40;;;2.30;53.70;;;;;;5084573;28;20193;-75
2022/01/23 00:12:18;;;;;;;16.83;8.00;;;2.30;53.80;;;;;;5084109;28;20571;-75
2022/01/23 00:17:35;;;;;;;17.87;8.37;;;2.20;53.90;;;;;;5085354;28;20189;-75
2022/01/23 00:20:11;;;;;;;16.27;8.07;;;2.20;53.90;;;;;;5084315;28;20195;-75
2022/01/23 00:22:43;;;;;;;12.70;6.90;;;2.20;53.90;;;;;;5081345;28;20712;-75
2022/01/23 00:30:47;;;;;;;15.83;8.30;;;2.10;54.00;;;;;;5082844;28;20200;-75
2022/01/23 00:33:16;;;;;;;20.77;8.37;;;2.10;54.00;;;;;;5084439;28;20193;-75
2022/01/23 00:35:46;;;;;;;16.87;7.80;;;2.10;54.00;;;;;;5073800;28;20236;-75
2022/01/23 00:38:16;;;;;;;17.07;8.03;;;2.00;54.10;;;;;;5077489;28;20650;-75
2022/01/23 00:40:46;;;;;;;25.83;9.53;;;2.00;54.10;;;;;;5083245;28;20187;-75
2022/01/23 00:43:26;;;;;;;18.53;8.70;;;2.00;54.10;;;;;;5075119;28;20189;-75
2022/01/23 00:46:08;;;;;;;17.60;8.10;;;2.00;54.10;;;;;;5083363;28;20238;-75
2022/01/23 00:48:39;;;;;;;22.63;9.90;;;2.00;54.20;;;;;;5081526;28;20285;-75
2022/01/23 00:51:08;;;;;;;25.67;10.03;;;2.00;54.20;;;;;;5078499;28;20792;-75
2022/01/23 00:53:36;;;;;;;20.33;9.93;;;1.90;54.20;;;;;;5082513;28;20576;-75
2022/01/23 00:56:04;;;;;;;21.53;9.80;;;1.90;54.30;;;;;;5078885;28;20192;-75
2022/01/23 00:58:34;;;;;;;20.03;8.87;;;1.90;54.40;;;;;;5082431;28;20211;-75
2022/01/23 01:01:03;;;;;;;22.63;9.83;;;1.80;54.40;;;;;;5073745;28;20204;-75
2022/01/23 01:03:31;;;;;;;23.47;10.20;;;1.80;54.60;;;;;;5083283;28;20262;-75
2022/01/23 01:06:00;;;;;;;27.27;11.27;;;1.80;54.60;;;;;;5078439;28;20450;-75
2022/01/23 01:08:29;;;;;;;21.83;10.57;;;1.80;54.70;;;;;;5081220;28;20253;-75
2022/01/23 01:11:11;;;;;;;26.20;10.80;;;1.80;54.60;;;;;;5079118;28;20229;-75
2022/01/23 01:13:56;;;;;;;25.87;11.97;;;1.80;54.60;;;;;;5082167;28;20241;-76
2022/01/23 01:16:50;;;;;;;26.10;10.73;;;1.70;55.40;;;;;;5077415;28;20439;-75
2022/01/23 01:31:06;;;;;;;20.90;10.47;;;1.70;55.20;;;;;;5083648;28;20184;-75
2022/01/23 01:33:43;;;;;;;17.67;8.27;;;1.70;55.20;;;;;;5080213;28;20714;-75
2022/01/23 01:36:23;;;;;;;20.80;9.87;;;1.70;55.30;;;;;;5107287;27;20339;-75
2022/01/23 01:38:52;;;;;;;24.43;10.63;;;1.70;55.20;;;;;;5117351;27;20194;-75
2022/01/23 01:41:21;;;;;;;22.23;10.63;;;1.60;55.20;;;;;;5123536;27;20856;-75
2022/01/23 01:43:51;;;;;;;25.60;10.67;;;1.60;55.20;;;;;;5122086;27;20193;-75
2022/01/23 01:46:21;;;;;;;22.80;10.83;;;1.60;55.20;;;;;;5119820;27;20219;-75
2022/01/23 01:48:50;;;;;;;22.07;10.50;;;1.60;55.20;;;;;;5120875;27;20222;-75
2022/01/23 01:51:19;;;;;;;24.43;10.27;;;1.60;55.20;;;;;;5118739;27;20188;-75
2022/01/23 01:53:52;;;;;;;21.70;10.00;;;1.60;55.30;;;;;;5121843;27;20201;-75
2022/01/23 01:56:20;;;;;;;22.63;10.73;;;1.60;55.40;;;;;;5123444;27;20186;-75
2022/01/23 02:10:10;;;;;;;23.00;10.07;;;1.50;55.80;;;;;;5109657;27;20190;-75
2022/01/23 02:18:43;;;;;;;19.40;10.00;;;1.40;56.00;;;;;;5112509;27;20185;-75
2022/01/23 02:24:09;;;;;;;21.83;9.93;;;1.40;56.20;;;;;;5116262;27;20225;-75
2022/01/23 02:51:49;;;;;;;22.50;10.23;;;1.50;55.90;;;;;;5117316;27;20677;-75
2022/01/23 02:54:39;;;;;;;21.47;9.70;;;1.50;55.90;;;;;;5120698;27;20907;-75
2022/01/23 02:57:09;;;;;;;19.83;9.33;;;1.50;55.90;;;;;;5122055;27;20186;-75
2022/01/23 02:59:39;;;;;;;20.50;10.43;;;1.50;56.00;;;;;;5121957;27;20465;-75
2022/01/23 03:02:23;;;;;;;16.73;8.67;;;1.50;56.30;;;;;;5118879;27;20199;-75
2022/01/23 03:04:53;;;;;;;21.80;9.57;;;1.50;56.30;;;;;;5121290;27;20271;-75
2022/01/23 03:07:48;;;;;;;18.83;8.83;;;1.50;56.20;;;;;;5122535;27;20247;-76
2022/01/23 03:10:22;;;;;;;21.90;9.90;;;1.50;56.10;;;;;;5116274;27;20239;-76
2022/01/23 03:24:18;;;;;;;17.63;8.93;;;1.60;55.80;;;;;;5119540;27;20278;-75
2022/01/23 03:27:00;;;;;;;17.07;8.70;;;1.60;55.70;;;;;;5118795;27;20199;-75
2022/01/23 03:29:40;;;;;;;17.67;8.83;;;1.60;55.70;;;;;;5121340;27;20191;-74
2022/01/23 03:32:20;;;;;;;18.80;8.53;;;1.70;55.80;;;;;;5121698;27;20191;-75
2022/01/23 03:34:48;;;;;;;16.43;8.33;;;1.70;55.80;;;;;;5122577;28;20195;-75
2022/01/23 03:37:17;;;;;;;17.13;8.03;;;1.70;55.90;;;;;;5120586;28;20199;-75
2022/01/23 03:39:45;;;;;;;16.93;7.23;;;1.70;56.00;;;;;;5120896;28;20191;-75
2022/01/23 03:42:15;;;;;;;18.27;7.80;;;1.70;56.10;;;;;;5120474;27;20841;-74
2022/01/23 03:44:57;;;;;;;19.27;8.17;;;1.70;56.00;;;;;;5126513;27;20659;-75
2022/01/23 03:47:36;;;;;;;17.07;8.47;;;1.70;56.00;;;;;;5116583;27;20230;-75
2022/01/23 03:50:05;;;;;;;13.73;7.30;;;1.80;56.10;;;;;;5123504;27;20191;-75
2022/01/23 03:52:34;;;;;;;15.90;7.87;;;1.80;56.00;;;;;;5124518;27;20204;-75
2022/01/23 03:55:05;;;;;;;13.73;7.67;;;1.80;56.00;;;;;;5126872;27;20196;-75
2022/01/23 03:57:35;;;;;;;14.17;7.73;;;1.80;56.10;;;;;;5125863;27;20233;-75
2022/01/23 04:00:05;;;;;;;15.23;7.43;;;1.80;56.10;;;;;;5124859;27;20196;-75
2022/01/23 04:02:33;;;;;;;16.57;7.50;;;1.90;56.10;;;;;;5111457;27;20697;-75
2022/01/23 04:05:02;;;;;;;16.37;7.00;;;1.90;56.10;;;;;;5122737;27;20191;-75
2022/01/23 04:07:32;;;;;;;20.13;8.10;;;1.90;56.20;;;;;;5117869;27;20854;-75
2022/01/23 04:10:00;;;;;;;16.90;7.93;;;1.90;56.20;;;;;;5117238;27;20806;-75
2022/01/23 04:12:40;;;;;;;16.13;8.50;;;1.90;56.20;;;;;;5121078;27;20189;-75
2022/01/23 04:15:17;;;;;;;16.07;7.63;;;1.90;56.20;;;;;;5123568;27;20187;-75
2022/01/23 04:20:45;;;;;;;16.33;8.37;;;2.00;56.20;;;;;;5127753;27;20194;-76
2022/01/23 04:31:49;;;;;;;20.33;7.67;;;2.00;56.00;;;;;;5127444;27;20184;-76
2022/01/23 04:34:23;;;;;;;16.17;7.63;;;2.00;56.00;;;;;;5126731;27;20255;-76
2022/01/23 04:45:23;;;;;;;14.17;7.50;;;2.00;55.80;;;;;;5127391;27;20187;-77
2022/01/23 05:02:11;;;;;;;18.20;7.23;;;2.00;55.70;;;;;;5125256;27;20192;-76
2022/01/23 05:04:42;;;;;;;13.73;6.77;;;2.10;55.80;;;;;;5126980;27;20553;-76
2022/01/23 05:07:13;;;;;;;12.57;6.80;;;2.10;55.80;;;;;;5120962;27;20205;-76
2022/01/23 05:09:41;;;;;;;15.87;6.97;;;2.10;55.80;;;;;;5126023;27;20640;-76
2022/01/23 05:12:12;;;;;;;14.40;7.00;;;2.20;56.00;;;;;;5129508;27;20236;-76
2022/01/23 05:14:45;;;;;;;17.20;6.77;;;2.20;56.00;;;;;;5128763;27;20441;-76
2022/01/23 05:17:15;;;;;;;18.50;7.07;;;2.20;56.00;;;;;;5123828;27;20187;-76
2022/01/23 05:19:45;;;;;;;10.90;5.70;;;2.30;55.90;;;;;;5127789;27;20192;-76
2022/01/23 05:22:26;;;;;;;16.97;7.00;;;2.30;55.70;;;;;;5127238;27;20811;-75
2022/01/23 05:24:58;;;;;;;13.93;6.67;;;2.30;55.60;;;;;;5124122;27;20204;-76
2022/01/23 05:27:29;;;;;;;15.35;7.70;;;2.30;55.50;;;;;;5127496;27;20434;-76
2022/01/23 05:29:59;;;;;;;13.63;6.70;;;2.30;55.70;;;;;;5119637;27;20185;-76
2022/01/23 05:32:33;;;;;;;14.10;7.10;;;2.30;55.70;;;;;;5124570;27;20192;-76
2022/01/23 05:35:04;;;;;;;13.03;6.27;;;2.40;55.70;;;;;;5127311;27;20196;-76
2022/01/23 05:37:33;;;;;;;13.63;6.03;;;2.40;55.70;;;;;;5123925;27;20367;-76
2022/01/23 05:40:01;;;;;;;14.33;7.57;;;2.40;55.70;;;;;;5121277;27;20434;-76
2022/01/23 05:42:30;;;;;;;11.90;5.83;;;2.50;56.00;;;;;;5126971;27;20191;-76
2022/01/23 05:44:58;;;;;;;13.77;7.90;;;2.50;56.00;;;;;;5128288;27;20192;-76
2022/01/23 05:47:26;;;;;;;19.30;8.23;;;2.50;55.90;;;;;;5127064;27;20216;-75
2022/01/23 05:49:55;;;;;;;12.98;6.82;;;2.50;56.00;;;;;;5126026;27;20435;-75
2022/01/23 05:52:24;;;;;;;13.40;6.57;;;2.50;56.10;;;;;;5123882;27;20181;-76
2022/01/23 05:54:53;;;;;;;14.00;6.33;;;2.60;56.10;;;;;;5120025;27;20196;-76
2022/01/23 05:57:21;;;;;;;16.67;6.77;;;2.60;56.00;;;;;;5128993;27;20195;-76
2022/01/23 05:59:49;;;;;;;13.17;6.37;;;2.60;56.00;;;;;;5126224;27;20760;-76
2022/01/23 06:02:18;;;;;;;17.27;7.73;;;2.60;56.10;;;;;;5124620;27;20189;-76
2022/01/23 06:04:46;;;;;;;13.57;6.63;;;2.60;56.20;;;;;;5124629;27;20239;-76
2022/01/23 06:07:15;;;;;;;16.40;6.87;;;2.60;56.30;;;;;;5118371;27;20757;-75
2022/01/23 06:09:45;;;;;;;10.97;6.10;;;2.70;56.30;;;;;;5127022;27;20188;-76
2022/01/23 06:12:13;;;;;;;16.57;7.33;;;2.70;56.40;;;;;;5125440;27;20701;-76
2022/01/23 06:14:42;;;;;;;15.20;7.07;;;2.70;56.50;;;;;;5122351;27;20241;-75
2022/01/23 06:17:10;;;;;;;14.60;6.50;;;2.70;56.60;;;;;;5119499;27;20211;-76
2022/01/23 06:19:39;;;;;;;17.00;7.07;;;2.60;56.60;;;;;;5123948;27;20723;-76
2022/01/23 06:22:07;;;;;;;17.13;7.50;;;2.60;56.60;;;;;;5121301;27;20626;-76
2022/01/23 06:24:44;;;;;;;21.43;8.27;;;2.60;56.60;;;;;;5129728;27;20739;-76
2022/01/23 06:27:14;;;;;;;19.10;9.20;;;2.60;56.70;;;;;;5129555;27;20227;-76
2022/01/23 06:29:45;;;;;;;21.33;8.50;;;2.60;56.80;;;;;;5130249;27;20256;-76
2022/01/23 06:32:14;;;;;;;17.03;7.73;;;2.60;56.80;;;;;;5128407;27;20212;-76
2022/01/23 06:34:43;;;;;;;14.53;7.67;;;2.60;56.90;;;;;;5127527;27;20195;-76
2022/01/23 06:37:12;;;;;;;15.20;7.53;;;2.60;57.00;;;;;;5127507;27;20231;-76
2022/01/23 06:39:40;;;;;;;15.83;7.10;;;2.60;57.10;;;;;;5128076;27;20188;-76
2022/01/23 06:42:09;;;;;;;12.70;7.13;;;2.70;57.20;;;;;;5128385;27;20191;-76
2022/01/23 06:44:40;;;;;;;14.20;7.77;;;2.70;57.30;;;;;;5129092;27;20199;-76
2022/01/23 06:47:08;;;;;;;15.50;7.73;;;2.70;57.50;;;;;;5128718;27;20216;-76
2022/01/23 06:49:36;;;;;;;17.50;8.60;;;2.70;57.50;;;;;;5123162;27;20189;-76
2022/01/23 06:52:05;;;;;;;16.70;8.33;;;2.70;57.60;;;;;;5129670;27;20191;-76
2022/01/23 06:54:34;;;;;;;15.90;7.23;;;2.80;57.60;;;;;;5125747;27;20219;-76
2022/01/23 06:57:02;;;;;;;17.10;6.70;;;2.80;57.60;;;;;;5125352;27;20218;-76
2022/01/23 06:59:30;;;;;;;14.83;7.20;;;2.80;58.20;;;;;;5122181;27;20203;-75
2022/01/23 07:02:00;;;;;;;16.07;6.17;;;2.80;57.40;;;;;;5119958;27;20197;-75
2022/01/23 07:04:35;;;;;;;16.07;6.83;;;2.90;57.50;;;;;;5121024;27;20609;-75
2022/01/23 07:07:04;;;;;;;13.00;6.77;;;2.90;57.50;;;;;;5122983;27;20204;-75
2022/01/23 07:09:32;;;;;;;14.13;6.00;;;2.90;58.10;;;;;;5125192;27;20208;-76
2022/01/23 07:12:00;;;;;;;13.13;6.60;;;2.90;57.30;;;;;;5118441;28;20191;-75
2022/01/23 07:14:29;;;;;;;9.47;5.77;;;2.90;57.30;;;;;;5122406;28;20304;-76
2022/01/23 07:16:57;;;;;;;16.13;6.67;;;2.90;57.20;;;;;;5124723;27;20192;-76
2022/01/23 07:19:27;;;;;;;13.13;6.03;;;3.00;57.30;;;;;;5129035;27;20196;-76
2022/01/23 07:21:55;;;;;;;14.20;6.73;;;3.00;57.50;;;;;;5123641;27;20214;-76
2022/01/23 07:24:23;;;;;;;12.53;6.13;;;3.00;57.60;;;;;;5124949;27;20188;-74
2022/01/23 07:26:52;;;;;;;16.20;7.00;;;3.10;57.60;;;;;;5127426;27;20184;-75
2022/01/23 07:29:20;;;;;;;18.10;6.87;;;3.10;57.60;;;;;;5128688;27;20185;-75
2022/01/23 07:31:59;;;;;;;19.30;7.60;;;3.20;57.60;;;;;;5128803;27;20237;-76
2022/01/23 07:34:29;;;;;;;17.27;8.17;;;3.20;57.70;;;;;;5124495;27;20187;-76
2022/01/23 07:36:57;;;;;;;15.30;7.10;;;3.20;57.80;;;;;;5119566;27;20739;-75
2022/01/23 07:39:26;;;;;;;15.00;7.10;;;3.30;57.80;;;;;;5129650;27;20192;-76
2022/01/23 07:41:54;;;;;;;13.40;6.70;;;3.30;57.90;;;;;;5125963;27;20197;-76
2022/01/23 07:44:23;;;;;;;14.60;7.60;;;3.30;58.00;;;;;;5128141;27;20581;-76
2022/01/23 07:46:52;;;;;;;15.63;7.83;;;3.30;58.10;;;;;;5127720;27;20184;-76
2022/01/23 07:49:21;;;;;;;17.60;8.97;;;3.30;58.20;;;;;;5127039;27;20224;-76
2022/01/23 07:51:51;;;;;;;18.80;8.50;;;3.20;58.70;;;;;;5129622;27;20184;-76
2022/01/23 07:54:20;;;;;;;19.77;8.50;;;3.20;58.20;;;;;;5128845;27;20790;-77
2022/01/23 07:56:48;;;;;;;18.47;8.97;;;3.20;58.40;;;;;;5127655;27;20196;-76
2022/01/23 07:59:17;;;;;;;15.47;8.17;;;3.20;58.40;;;;;;5127927;27;20188;-76
2022/01/23 08:01:45;;;;;;;17.03;8.33;;;3.20;58.70;;;;;;5132349;27;20188;-75
2022/01/23 08:04:14;;;;;;;20.03;8.97;;;3.20;58.60;;;;;;5136325;27;20196;-76
2022/01/23 08:06:45;;;;;;;23.23;8.73;;;3.20;58.60;;;;;;5121451;27;20216;-75
2022/01/23 08:09:15;;;;;;;19.37;9.20;;;3.30;58.60;;;;;;5120627;27;20229;-76
2022/01/23 08:11:44;;;;;;;19.27;8.77;;;3.30;58.70;;;;;;5120217;27;20271;-76
2022/01/23 08:14:12;;;;;;;22.33;9.10;;;3.30;58.80;;;;;;5129733;27;20193;-76
2022/01/23 08:16:41;;;;;;;24.13;10.20;;;3.40;58.90;;;;;;5135773;27;20192;-76
2022/01/23 08:19:09;;;;;;;19.93;9.23;;;3.40;58.90;;;;;;5129333;27;20653;-76
2022/01/23 08:21:38;;;;;;;16.47;8.83;;;3.50;59.00;;;;;;5130952;27;20198;-77
2022/01/23 08:24:08;;;;;;;18.47;8.73;;;3.50;59.00;;;;;;5130965;27;20209;-75
2022/01/23 08:26:37;;;;;;;17.07;8.67;;;3.60;59.10;;;;;;5122798;27;20188;-77
2022/01/23 08:29:07;;;;;;;15.37;7.87;;;3.70;59.80;;;;;;5125739;27;20220;-76
2022/01/23 08:31:35;;;;;;;18.73;8.30;;;3.70;59.00;;;;;;5126058;27;20188;-76
2022/01/23 08:34:03;;;;;;;17.03;7.37;;;3.80;59.00;;;;;;5127360;27;20189;-76
2022/01/23 08:36:33;;;;;;;17.77;8.73;;;3.80;58.90;;;;;;5120128;27;20213;-77
2022/01/23 08:39:01;;;;;;;14.30;8.20;;;3.90;58.90;;;;;;5121148;27;20858;-75
2022/01/23 08:44:17;;;;;;;16.50;8.40;;;4.00;58.90;;;;;;5120415;27;20448;-76
2022/01/23 08:46:47;;;;;;;14.47;7.47;;;4.00;58.70;;;;;;5122681;27;20268;-76
2022/01/23 08:49:17;;;;;;;13.10;7.83;;;4.10;58.60;;;;;;5126702;27;20272;-76
2022/01/23 08:51:45;;;;;;;16.20;8.43;;;4.10;58.70;;;;;;5127038;27;20193;-76
2022/01/23 08:54:14;;;;;;;16.23;8.03;;;4.10;58.70;;;;;;5126011;27;20199;-76
2022/01/23 08:56:43;;;;;;;21.23;9.48;;;4.20;58.80;;;;;;5126894;27;20932;-76
2022/01/23 08:59:11;;;;;;;16.93;8.13;;;4.20;59.00;;;;;;5127157;27;20190;-76
2022/01/23 09:01:41;;;;;;;16.37;7.23;;;4.30;58.90;;;;;;5119801;27;20186;-75
2022/01/23 09:04:15;;;;;;;14.50;7.30;;;4.30;58.80;;;;;;5124628;27;20267;-75
2022/01/23 09:06:44;;;;;;;13.17;7.20;;;4.40;59.00;;;;;;5126880;27;20190;-76
2022/01/23 09:09:16;;;;;;;18.60;9.18;;;4.40;58.80;;;;;;5117144;27;20440;-76
2022/01/23 09:11:55;;;;;;;14.47;7.97;;;4.40;58.80;;;;;;5127057;27;20187;-76
2022/01/23 09:14:25;;;;;;;15.53;8.27;;;4.40;58.60;;;;;;5118226;27;20224;-76
2022/01/23 09:16:55;;;;;;;15.30;8.13;;;4.50;58.60;;;;;;5126647;27;20186;-76
2022/01/23 09:19:25;;;;;;;15.60;7.80;;;4.50;58.50;;;;;;5118178;27;20593;-76
2022/01/23 09:21:55;;;;;;;17.43;7.97;;;4.60;58.40;;;;;;5126163;27;20454;-76
2022/01/23 09:24:25;;;;;;;16.63;7.90;;;4.50;58.20;;;;;;5124348;27;20198;-75
2022/01/23 09:27:01;;;;;;;15.17;7.67;;;4.60;58.30;;;;;;5116789;27;20192;-76
2022/01/23 09:29:33;;;;;;;16.43;7.27;;;4.60;58.30;;;;;;5120656;27;20211;-76
2022/01/23 09:32:05;;;;;;;16.33;7.97;;;4.70;58.30;;;;;;5122434;27;20197;-76
2022/01/23 09:34:34;;;;;;;16.93;7.93;;;4.70;58.30;;;;;;5121286;27;20187;-77
2022/01/23 09:37:05;;;;;;;15.23;6.63;;;4.70;58.00;;;;;;5125688;27;20221;-76
2022/01/23 09:39:34;;;;;;;13.20;6.37;;;4.70;57.80;;;;;;5118826;27;20184;-76
2022/01/23 09:42:07;;;;;;;13.93;6.67;;;4.70;57.90;;;;;;5124249;27;20189;-76
2022/01/23 09:44:42;;;;;;;15.85;8.10;;;4.70;58.00;;;;;;5124510;27;20411;-76
2022/01/23 09:47:14;;;;;;;11.30;6.63;;;4.70;58.40;;;;;;5126315;27;20183;-76
2022/01/23 09:49:44;;;;;;;11.93;6.00;;;4.70;58.40;;;;;;5117199;27;20617;-76
2022/01/23 09:52:14;;;;;;;13.77;7.03;;;4.60;58.40;;;;;;5125765;27;20183;-76
2022/01/23 09:54:45;;;;;;;12.60;6.27;;;4.60;58.00;;;;;;5124712;27;20142;-76
2022/01/23 09:57:15;;;;;;;11.27;5.63;;;4.60;58.10;;;;;;5123842;27;20616;-77
2022/01/23 09:59:44;;;;;;;13.17;6.60;;;4.60;58.20;;;;;;5121120;27;20269;-76
2022/01/23 10:02:14;;;;;;;14.93;6.47;;;4.60;58.00;;;;;;5115745;27;20183;-75
2022/01/23 10:04:43;;;;;;;14.83;7.07;;;4.60;58.10;;;;;;5122658;27;20185;-76
2022/01/23 10:07:11;;;;;;;12.10;7.10;;;4.70;58.30;;;;;;5123323;27;20246;-76
2022/01/23 10:09:39;;;;;;;11.33;6.20;;;4.70;58.50;;;;;;5123108;27;20577;-77
2022/01/23 10:12:10;;;;;;;12.70;6.20;;;4.60;58.10;;;;;;5120777;27;20191;-77
2022/01/23 10:14:38;;;;;;;11.53;6.63;;;4.70;58.50;;;;;;5120904;27;20186;-77
2022/01/23 10:17:09;;;;;;;11.57;6.40;;;4.70;57.80;;;;;;5123315;27;20907;-76
2022/01/23 10:19:40;;;;;;;13.47;6.00;;;4.80;57.70;;;;;;5125615;27;20198;-77
2022/01/23 10:22:14;;;;;;;13.83;6.23;;;4.80;57.50;;;;;;5121663;27;20286;-77
2022/01/23 10:24:43;;;;;;;13.13;6.40;;;4.80;57.40;;;;;;5123076;27;20199;-77
2022/01/23 10:27:11;;;;;;;18.73;6.77;;;4.90;57.30;;;;;;5122102;27;20207;-77
2022/01/23 10:29:44;;;;;;;13.43;7.40;;;4.80;57.40;;;;;;5124727;27;20216;-77
2022/01/23 10:32:18;;;;;;;16.97;7.80;;;4.90;57.60;;;;;;5124586;27;20171;-77
2022/01/23 10:34:55;;;;;;;13.60;6.68;;;4.90;57.80;;;;;;5119301;27;21409;-77
2022/01/23 10:37:35;;;;;;;14.03;6.77;;;4.90;57.90;;;;;;5116442;27;20254;-77
2022/01/23 10:40:12;;;;;;;12.73;6.53;;;4.90;58.00;;;;;;5119879;27;20211;-77
2022/01/23 10:46:35;;;;;;;14.17;6.30;;;4.80;57.80;;;;;;5115210;27;20199;-78
2022/01/23 10:48:40;;;;;;;10.73;6.37;;;4.80;57.80;;;;;;5120894;27;20220;-77
2022/01/23 10:51:23;;;;;;;12.70;6.17;;;4.80;57.30;;;;;;5123065;27;20340;-78
2022/01/23 10:54:03;;;;;;;16.47;6.20;;;4.80;57.30;;;;;;5112940;27;20196;-78
2022/01/23 10:56:34;;;;;;;11.27;6.20;;;4.80;57.30;;;;;;5112876;27;20189;-77
2022/01/23 10:59:04;;;;;;;13.60;6.35;;;4.80;57.40;;;;;;5121874;27;20488;-77
2022/01/23 11:01:33;;;;;;;16.33;6.93;;;4.80;57.60;;;;;;5122315;27;20181;-77
2022/01/23 11:04:11;;;;;;;15.47;5.60;;;4.80;57.60;;;;;;5122387;27;20285;-77
2022/01/23 11:06:54;;;;;;;9.63;5.70;;;4.70;57.50;;;;;;5121883;27;20329;-77
2022/01/23 11:09:27;;;;;;;12.27;5.67;;;4.80;57.50;;;;;;5118560;27;20684;-77
2022/01/23 11:12:02;;;;;;;13.93;6.45;;;4.90;57.40;;;;;;5119960;28;20443;-76
2022/01/23 11:17:24;;;;;;;11.17;5.50;;;4.80;57.30;;;;;;5123492;28;20200;-76
2022/01/23 11:20:00;;;;;;;13.50;6.27;;;4.90;57.30;;;;;;5122382;28;20191;-76
2022/01/23 11:22:34;;;;;;;12.70;6.17;;;4.90;57.30;;;;;;5120799;28;20196;-77
2022/01/23 11:25:07;;;;;;;10.50;6.50;;;4.90;57.40;;;;;;5121341;28;20225;-75
2022/01/23 11:27:39;;;;;;;13.57;6.83;;;4.90;57.40;;;;;;5117079;28;20278;-77
2022/01/23 11:30:10;;;;;;;14.03;6.60;;;5.00;57.60;;;;;;5122355;28;20219;-77
2022/01/23 11:32:41;;;;;;;13.40;5.80;;;5.00;57.40;;;;;;5121543;28;20187;-76
2022/01/23 11:35:13;;;;;;;10.43;5.97;;;5.20;57.40;;;;;;5120134;28;20196;-77
2022/01/23 11:37:48;;;;;;;14.97;7.23;;;5.20;57.50;;;;;;5123681;28;20176;-78
2022/01/23 11:40:33;;;;;;;12.87;5.93;;;5.20;57.20;;;;;;5123897;28;21077;-77
2022/01/23 11:54:08;;;;;;;17.60;8.23;;;5.60;55.40;;;;;;5089621;28;20189;-77
2022/01/23 11:56:44;;;;;;;10.70;5.57;;;5.60;55.50;;;;;;5119636;28;20191;-77
2022/01/23 11:59:27;;;;;;;12.37;6.37;;;5.70;55.30;;;;;;5119841;28;20195;-77
2022/01/23 12:05:32;;;;;;;13.20;6.07;;;5.70;55.60;;;;;;5101308;27;20204;-76
2022/01/23 12:08:33;;;;;;;12.47;6.03;;;5.80;55.80;;;;;;5124888;27;20286;-77
2022/01/23 12:17:39;;;;;;;11.27;6.57;;;6.00;55.40;;;;;;5119168;27;20199;-76
2022/01/23 12:20:09;;;;;;;19.97;8.83;;;6.10;55.20;;;;;;5121997;27;20585;-75
2022/01/23 12:22:45;;;;;;;7.47;3.50;;;6.10;54.30;;;;;;5123123;27;20677;-75
2022/01/23 12:25:23;;;;;;;8.87;4.57;;;6.10;54.20;;;;;;5121460;27;20188;-75
2022/01/23 12:28:20;;;;;;;8.73;4.87;;;6.10;54.60;;;;;;5124499;27;20205;-76
2022/01/23 12:30:52;;;;;;;11.07;5.10;;;6.10;55.20;;;;;;5124886;27;20212;-76
2022/01/23 12:33:47;;;;;;;14.70;7.40;;;6.20;55.60;;;;;;5122540;27;20230;-74
2022/01/23 12:36:23;;;;;;;26.37;10.60;;;6.20;56.00;;;;;;5124650;27;20234;-75
2022/01/23 12:38:54;;;;;;;13.77;6.60;;;6.30;56.70;;;;;;5118683;27;20192;-76
2022/01/23 12:41:27;;;;;;;10.07;5.87;;;6.30;56.70;;;;;;5119531;27;20184;-75
2022/01/23 12:44:00;;;;;;;12.83;5.80;;;6.40;57.00;;;;;;5125170;27;20193;-76
2022/01/23 12:46:34;;;;;;;12.20;6.13;;;6.40;57.80;;;;;;5121308;27;20194;-77
2022/01/23 12:49:24;;;;;;;10.80;5.83;;;6.50;57.60;;;;;;5129440;27;20271;-75
2022/01/23 12:51:54;;;;;;;10.90;6.00;;;6.60;57.50;;;;;;5126075;27;20208;-75
2022/01/23 12:54:29;;;;;;;12.23;6.40;;;6.70;57.70;;;;;;5116577;27;20192;-77
2022/01/23 12:57:05;;;;;;;14.30;8.10;;;6.80;57.60;;;;;;5125063;27;20199;-76
2022/01/23 12:59:36;;;;;;;13.40;7.73;;;6.90;57.40;;;;;;5124859;27;20195;-76
2022/01/23 13:02:12;;;;;;;11.10;6.75;;;7.00;57.40;;;;;;5121079;27;20434;-76
2022/01/23 13:04:43;;;;;;;11.63;6.60;;;7.10;57.30;;;;;;5119217;27;20273;-77
2022/01/23 13:07:39;;;;;;;12.80;6.10;;;7.20;57.00;;;;;;5111647;27;20194;-76
2022/01/23 13:10:23;;;;;;;14.40;7.47;;;7.20;56.80;;;;;;5108171;27;20210;-76
2022/01/23 13:13:07;;;;;;;13.10;6.83;;;7.30;57.00;;;;;;5108351;27;20184;-76
2022/01/23 13:16:02;;;;;;;12.93;5.13;;;7.40;57.10;;;;;;5124366;27;20859;-76
2022/01/23 13:18:46;;;;;;;10.33;5.03;;;7.60;57.00;;;;;;5116241;27;20188;-76
2022/01/23 13:32:38;;;;;;;10.47;5.47;;;8.80;56.30;;;;;;5115338;27;20184;-75
2022/01/23 13:35:12;;;;;;;9.93;6.23;;;9.30;55.50;;;;;;5114414;27;20584;-75
2022/01/23 13:37:42;;;;;;;10.10;5.93;;;9.90;55.20;;;;;;5091931;28;20189;-75
2022/01/23 13:40:14;;;;;;;14.83;7.53;;;10.50;53.40;;;;;;5090628;28;20198;-75
2022/01/23 13:59:53;;;;;;;10.90;5.30;;;17.80;38.10;;;;;;5085696;28;20192;-75
2022/01/23 14:02:24;;;;;;;10.97;6.10;;;19.10;35.50;;;;;;5095887;28;20197;-74
2022/01/23 14:04:56;;;;;;;8.13;4.70;;;18.40;36.30;;;;;;5101754;28;20181;-75
2022/01/23 14:07:26;;;;;;;9.53;4.90;;;17.90;36.70;;;;;;5103481;28;20242;-74
2022/01/23 14:09:56;;;;;;;8.00;4.80;;;16.90;36.90;;;;;;5102279;28;20193;-73
2022/01/23 14:12:26;;;;;;;7.43;4.63;;;16.00;38.20;;;;;;5100225;28;20660;-74
2022/01/23 14:15:16;;;;;;;9.13;4.50;;;15.90;38.40;;;;;;5103046;28;20707;-74
2022/01/23 14:17:57;;;;;;;9.47;4.80;;;16.00;37.90;;;;;;5102936;28;20232;-74
2022/01/23 14:20:28;;;;;;;6.83;4.43;;;15.90;37.90;;;;;;5102316;28;20185;-75
2022/01/23 14:22:56;;;;;;;9.87;4.20;;;15.60;37.70;;;;;;5094614;28;20178;-75
2022/01/23 14:25:27;;;;;;;10.50;5.00;;;15.30;37.60;;;;;;5102543;28;20424;-75
2022/01/23 14:28:05;;;;;;;9.37;4.90;;;15.00;37.40;;;;;;5102214;28;20189;-75
2022/01/23 14:30:42;;;;;;;9.10;4.73;;;14.50;37.80;;;;;;5102526;28;20185;-75
2022/01/23 14:33:13;;;;;;;9.00;4.80;;;14.00;38.30;;;;;;5102131;28;20196;-75
2022/01/23 14:35:43;;;;;;;7.37;4.03;;;13.50;38.80;;;;;;5102148;28;20333;-75
2022/01/23 14:38:14;;;;;;;10.20;5.13;;;13.10;39.20;;;;;;5103098;28;20177;-75
2022/01/23 14:40:57;;;;;;;18.40;8.03;;;12.70;39.40;;;;;;5104609;28;20192;-75
2022/01/23 14:43:36;;;;;;;14.17;7.77;;;12.30;39.70;;;;;;5102026;28;20257;-75
2022/01/23 14:46:06;;;;;;;12.07;5.67;;;12.00;40.00;;;;;;5092632;28;20212;-74
2022/01/23 14:48:39;;;;;;;12.57;6.73;;;11.60;41.00;;;;;;5101090;28;20177;-74
2022/01/23 14:51:09;;;;;;;13.07;7.30;;;11.40;40.60;;;;;;5102167;28;20883;-75
2022/01/23 14:53:40;;;;;;;17.43;9.17;;;11.10;41.00;;;;;;5103917;28;20181;-75
2022/01/23 14:56:12;;;;;;;13.27;7.77;;;10.80;41.30;;;;;;5102004;28;20197;-75
2022/01/23 14:58:41;;;;;;;10.90;6.37;;;10.60;41.60;;;;;;5103600;28;20626;-74
2022/01/23 15:01:12;;;;;;;15.60;7.20;;;10.30;41.90;;;;;;5102646;28;20758;-74
2022/01/23 15:03:47;;;;;;;13.90;7.07;;;10.10;42.30;;;;;;5097647;28;20205;-75
2022/01/23 15:06:33;;;;;;;15.67;7.20;;;9.90;42.70;;;;;;5102757;28;20269;-75
2022/01/23 15:09:06;;;;;;;16.97;7.13;;;9.70;43.00;;;;;;5102787;28;20193;-74
2022/01/23 15:11:35;;;;;;;16.87;8.37;;;9.50;43.40;;;;;;5103306;28;20205;-74
2022/01/23 15:14:04;;;;;;;21.30;10.20;;;9.30;43.60;;;;;;5103072;28;20428;-75
2022/01/23 15:16:33;;;;;;;15.77;8.30;;;9.00;44.00;;;;;;5103535;28;20750;-74
2022/01/23 15:19:01;;;;;;;26.63;10.57;;;8.90;44.40;;;;;;5104017;28;20276;-74
2022/01/23 15:21:29;;;;;;;31.27;14.13;;;8.70;44.70;;;;;;5103390;28;20240;-74
2022/01/23 15:23:59;;;;;;;27.63;12.63;;;8.60;45.00;;;;;;5103230;28;20201;-74
2022/01/23 15:26:30;;;;;;;34.07;14.63;;;8.40;45.20;;;;;;5104386;28;20210;-74
2022/01/23 15:28:58;;;;;;;31.27;15.20;;;8.30;45.40;;;;;;5103413;28;20184;-74
2022/01/23 15:31:27;;;;;;;25.40;11.77;;;8.10;45.60;;;;;;5103847;28;20274;-74
2022/01/23 15:33:55;;;;;;;29.03;12.67;;;8.00;46.00;;;;;;5092226;28;20209;-74
2022/01/23 15:36:24;;;;;;;23.30;12.03;;;7.90;46.30;;;;;;5101126;28;20233;-74
2022/01/23 15:38:52;;;;;;;26.90;12.77;;;7.70;46.50;;;;;;5097758;28;20194;-74
2022/01/23 15:41:22;;;;;;;28.40;12.43;;;7.60;46.90;;;;;;5102533;28;20213;-74
2022/01/23 15:43:50;;;;;;;29.47;13.03;;;7.50;47.20;;;;;;5105345;28;20201;-74
2022/01/23 15:46:20;;;;;;;39.43;14.17;;;7.40;47.50;;;;;;5106741;28;20193;-73
2022/01/23 15:48:48;;;;;;;28.70;13.17;;;7.20;47.60;;;;;;5099793;28;20190;-75
2022/01/23 15:51:17;;;;;;;26.13;12.70;;;7.20;47.90;;;;;;5100373;28;20188;-74
2022/01/23 15:53:45;;;;;;;29.23;13.47;;;7.00;48.10;;;;;;5105507;28;20193;-74
2022/01/23 15:56:14;;;;;;;32.80;14.90;;;6.90;48.30;;;;;;5104861;28;20201;-74
2022/01/23 15:58:43;;;;;;;261.40;92.57;;;6.80;48.60;;;;;;5106431;28;20777;-74
2022/01/23 16:01:15;;;;;;;218.03;89.23;;;6.70;48.80;;;;;;5096661;28;20472;-73